Terminal Aerodrome Forecast
Issued by NWS

Home | Current Version | Previous Version | Text Only | Print | Product List | Glossary On
Versions: 1 2 3 4 5 6 7 8 9 10 11 12
491
FTUS43 KOAX 270527
TAFBFF
TAF
KBFF 270527Z 2706/2806 13015KT P6SM SKC
     FM271000 13015KT P6SM BKN025
     FM271500 17012KT P6SM SCT080
     FM272000 28018G28KT P6SM VCTS BKN080CB
     FM280100 34012KT P6SM SCT080=

USA.gov is the U.S. government's official web portal to all federal, state and local government web resources and services.